FLIGHT INFORMATION
PMDG Flight Operations

PFO24

At Arrival Gate

KLAX
 ZBAA
DATE: 2018-08-24
GATE:  -
GATE DEPARTURE: 05:47
TAKEOFF: 06:02
DATE: 2018-08-24
GATE:  -
LANDING: 18:24
GATE ARRIVAL: 18:36
FLIGHT DATA
Crew: MICHAEL ROTH
Speed: 519 kts Altitude: 38000 ft
Stage Length: 5420 nm
Route: 
Block Time: 12.8 Flight Time: 12.4
Fuel Used: 246438 LB
TRACK DATA
50000 FT1000 KTAltitudeSpeed
AIRCRAFT INFORMATION
Aircraft Type: B748F
Registration: N748PM
SELCAL:  MSN/LN: 0 / 2
Operator: PMDG FLIGHT OPERATIONS
Flights: 6 Block Time: 52.2 Flight Time: 50.8
Fuel Used: 1013403 LB
  • DEPARTURE INFORMATION
    Date: 2018-08-24
    Airport: KLAX
    Gate:  -
    Gate Departure: 05:47
    Takeoff: 06:02
    ARRIVAL INFORMATION
    Date: 2018-08-24
    Airport: ZBAA
    Gate:  -
    Landing: 18:24
    Gate Arrival: 18:36
  • FLIGHT DATA
    Crew: MICHAEL ROTH
    Speed: 519 kts Altitude: 38000 ft
    Stage Length: 2927 nm
    Route: 
    Block Time: 12.8 Flight Time: 12.4
    Fuel Used: 246438 LB
  • AIRCRAFT INFORMATION
    Aircraft Type: B748F
    Registration: N748PM
    SELCAL:  MSN/LN: 0 / 2
    Operator: PMDG Flight Operations
    Flights: 6 Block Time: 52.2 Flight Time: 50.8
    Fuel Used: 1013403 LB

DATALINK LOG | Newest first | Current as of: 2020-05-27 02:17:50
LABEL ID SEQUENCE CONTENT Dn/Up
QD364218:36 19.4▼ Dn
QC242818:24▼ Dn
GA5859ADVANCED GATE ASSIGNMENTS NOT YET AVAILABLE AT THIS AIRPORT▲ Up
GR5548ZBAA▼ Dn
2U5859ZBAA 241730Z 03002MPS CAVOK 21/19 Q1007 NOSIG▲ Up
2S5542ZBAA▼ Dn
2U4148ZBAA 241730Z 03002MPS CAVOK 21/19 Q1007 NOSIG▲ Up
2S3926ZBAA▼ Dn
462444/OV LUSAK /TM 1524 /FL360 /TP B748 /SK SCT /TA -14 /WV 298/76 /RM DARK OUTSIDE▼ Dn
5U2536TAF ZBAA 240930Z 2412/2512 01004MPS CAVOK TX31/2507Z TN20/2421Z▲ Up
5S2319ZBAA▼ Dn
2U2536ZBAA 241500Z VRB01MPS CAVOK 22/19 Q1007 NOSIG▲ Up
2S2315ZBAA▼ Dn
QB021206:02▼ Dn
5U5720TAF ZBAA 232130Z 2400/2424 03004MPS CAVOK TX32/2406Z TN19/2420Z▲ Up
5S5545ZBAA▼ Dn
QA470105:47 266▼ Dn
2U4811KLAX 240453Z 25007KT 8SM FEW014 21/18 A2997 RMK AO2 SLP145 T02110178 $▲ Up
2S4643KLAX▼ Dn


AIRCRAFT HISTORY
FLIGHT DATE FLIGHT NUMBER ORIGIN DESTINATION ROUTE BLOCK TIME FLIGHT TIME FUEL USED (LB) PILOT
2018-08-24PFO24KLAX ZBAA 12.812.4246438Michael Roth
2018-08-23PFO23KIAD KLAX 4.94.796956Michael Roth
2018-08-20PFO1204KSFO KIAD 4.94.494882Mark Adeane
2018-08-19PFO3265YSSY KSFO 13.212.9285878Mark Adeane
2018-08-04PFO804KLAX YSSY 14.514.2250945Kyle Rodgers
2018-08-04PFO804KPAE KLAX 2.42.138304Kyle Rodgers